Time;durP1;ratioP1;P1;durP2;ratioP2;P2;SDS_P1;SDS_P2;PMS_P1;PMS_P2;Temp;Humidity;BMP_temperature;BMP_pressure;BME280_temperature;BME280_humidity;BME280_pressure;Samples;Min_cycle;Max_cycle;Signal;HPM_P1;HPM_P2
2022/05/29 00:00:19;;;;;;;1.40;1.03;;;24.80;49.10;;;;;;5041856;28;20818;-88
2022/05/29 00:02:48;;;;;;;1.30;0.90;;;24.80;49.10;;;;;;5010295;28;20427;-88
2022/05/29 00:05:16;;;;;;;1.50;1.00;;;24.80;49.20;;;;;;5010722;28;20177;-88
2022/05/29 00:07:47;;;;;;;1.30;1.03;;;24.80;49.20;;;;;;5062384;28;20422;-89
2022/05/29 00:10:14;;;;;;;1.17;1.07;;;24.80;49.20;;;;;;5028863;28;20415;-89
2022/05/29 00:12:39;;;;;;;1.10;0.93;;;24.80;49.20;;;;;;5028248;28;20423;-89
2022/05/29 00:15:06;;;;;;;1.73;1.10;;;24.80;49.20;;;;;;5029036;28;20453;-89
2022/05/29 00:17:33;;;;;;;1.90;1.13;;;24.80;49.20;;;;;;5029680;28;20179;-90
2022/05/29 00:19:59;;;;;;;1.80;1.07;;;24.80;49.20;;;;;;5029226;28;20510;-87
2022/05/29 00:22:25;;;;;;;2.30;1.17;;;24.80;49.20;;;;;;5028877;28;20443;-86
2022/05/29 00:24:51;;;;;;;1.77;1.10;;;24.80;49.20;;;;;;5028850;28;20204;-86
2022/05/29 00:27:17;;;;;;;1.57;1.10;;;24.80;49.20;;;;;;5028522;28;20427;-86
2022/05/29 00:29:44;;;;;;;1.50;1.03;;;24.80;49.20;;;;;;5027580;28;20790;-86
2022/05/29 00:32:11;;;;;;;1.30;1.20;;;24.80;49.20;;;;;;5058127;28;20428;-86
2022/05/29 00:34:37;;;;;;;1.70;1.20;;;24.80;49.80;;;;;;5027942;28;20999;-86
2022/05/29 00:37:05;;;;;;;1.97;1.20;;;24.70;49.20;;;;;;5029006;28;20416;-86
2022/05/29 00:39:34;;;;;;;1.33;1.20;;;24.70;49.20;;;;;;5027570;28;20419;-86
2022/05/29 00:42:06;;;;;;;1.60;0.90;;;24.70;49.20;;;;;;5029194;28;20799;-86
2022/05/29 00:44:33;;;;;;;1.97;1.30;;;24.70;49.20;;;;;;5025837;28;20431;-86
2022/05/29 00:47:15;;;;;;;1.23;1.00;;;24.70;49.20;;;;;;5064624;28;20501;-86
2022/05/29 00:49:43;;;;;;;1.87;1.20;;;24.70;49.20;;;;;;5042024;28;20442;-87
2022/05/29 00:52:11;;;;;;;1.33;1.20;;;24.70;49.30;;;;;;5028029;28;20420;-86
2022/05/29 00:54:42;;;;;;;2.13;1.20;;;24.70;49.30;;;;;;5059053;28;20493;-87
2022/05/29 00:57:23;;;;;;;1.10;0.90;;;24.70;49.30;;;;;;5026384;28;20442;-86
2022/05/29 00:59:49;;;;;;;2.33;1.00;;;24.70;49.30;;;;;;5016724;28;20435;-86
2022/05/29 01:02:15;;;;;;;2.33;1.10;;;24.70;49.40;;;;;;5024795;28;20507;-86
2022/05/29 01:04:45;;;;;;;2.40;1.07;;;24.70;49.30;;;;;;5042533;28;20204;-87
2022/05/29 01:07:14;;;;;;;1.00;0.80;;;24.70;49.40;;;;;;5026070;28;20438;-86
2022/05/29 01:09:43;;;;;;;1.00;0.87;;;24.70;49.40;;;;;;5058977;28;20481;-87
2022/05/29 01:12:40;;;;;;;1.60;1.17;;;24.70;49.40;;;;;;5026196;28;20438;-86
2022/05/29 01:15:25;;;;;;;1.80;1.10;;;24.70;49.40;;;;;;5021645;28;20909;-87
2022/05/29 01:18:00;;;;;;;1.90;1.10;;;24.70;49.80;;;;;;5035083;28;20411;-87
2022/05/29 01:20:47;;;;;;;1.70;1.00;;;24.70;49.40;;;;;;5058993;28;20411;-86
2022/05/29 01:23:46;;;;;;;1.63;0.97;;;24.60;49.40;;;;;;5058783;28;20423;-87
2022/05/29 01:26:58;;;;;;;1.67;1.00;;;24.70;49.50;;;;;;5037679;28;20431;-86
2022/05/29 01:29:46;;;;;;;1.67;0.97;;;24.60;49.40;;;;;;5038787;28;20422;-86
2022/05/29 01:32:54;;;;;;;1.40;1.13;;;24.60;49.50;;;;;;5021507;28;20412;-86
2022/05/29 01:35:35;;;;;;;1.40;0.90;;;24.60;49.50;;;;;;5005786;28;20447;-86
2022/05/29 01:38:09;;;;;;;1.23;0.97;;;24.60;49.50;;;;;;5018162;28;20945;-86
2022/05/29 01:40:55;;;;;;;1.50;1.10;;;24.60;49.60;;;;;;5017195;28;20415;-86
2022/05/29 01:43:45;;;;;;;1.30;1.20;;;24.60;49.50;;;;;;5006910;28;20393;-86
2022/05/29 01:46:29;;;;;;;2.20;1.43;;;24.60;49.50;;;;;;5038180;28;20396;-86
2022/05/29 01:49:05;;;;;;;1.10;0.90;;;24.60;49.60;;;;;;5006890;28;20442;-86
2022/05/29 01:51:33;;;;;;;1.40;1.10;;;24.60;49.60;;;;;;5005165;28;20408;-86
2022/05/29 01:54:13;;;;;;;1.30;0.90;;;24.60;49.60;;;;;;5021841;28;20515;-86
2022/05/29 01:56:53;;;;;;;1.90;1.00;;;24.60;49.60;;;;;;5007351;28;20490;-89
2022/05/29 01:59:44;;;;;;;1.73;1.03;;;24.60;49.60;;;;;;5040237;28;20404;-89
2022/05/29 02:02:13;;;;;;;1.07;0.83;;;24.60;49.60;;;;;;5009305;28;20411;-88
2022/05/29 02:04:43;;;;;;;1.43;0.90;;;24.60;49.60;;;;;;5006892;28;20420;-88
2022/05/29 02:10:10;;;;;;;1.20;1.10;;;24.60;49.60;;;;;;5008877;28;20464;-87
2022/05/29 02:12:40;;;;;;;1.57;1.00;;;24.60;49.60;;;;;;5008911;28;20859;-88
2022/05/29 02:15:12;;;;;;;1.37;1.00;;;24.60;49.60;;;;;;5006948;28;20400;-88
2022/05/29 02:17:44;;;;;;;1.00;0.87;;;24.60;49.60;;;;;;5007408;28;20415;-88
2022/05/29 02:20:26;;;;;;;1.10;0.87;;;24.60;49.60;;;;;;5007445;28;20910;-88
2022/05/29 02:23:08;;;;;;;1.30;1.00;;;24.60;49.60;;;;;;5008510;28;20495;-88
2022/05/29 02:25:35;;;;;;;1.40;0.80;;;24.60;49.60;;;;;;5006780;28;20408;-86
2022/05/29 02:28:24;;;;;;;1.47;1.00;;;24.60;49.70;;;;;;5005494;28;20484;-86
2022/05/29 02:31:19;;;;;;;1.17;0.87;;;24.60;49.60;;;;;;5005286;28;20404;-86
2022/05/29 02:34:03;;;;;;;1.10;1.00;;;24.60;49.70;;;;;;5004687;28;21035;-86
2022/05/29 02:37:01;;;;;;;1.30;0.90;;;24.60;49.70;;;;;;5005973;28;20393;-86
2022/05/29 02:40:01;;;;;;;1.30;1.00;;;24.60;49.70;;;;;;4994430;28;20416;-86
2022/05/29 02:42:26;;;;;;;1.23;1.13;;;24.60;49.70;;;;;;5006030;28;20392;-86
2022/05/29 02:45:31;;;;;;;1.67;1.00;;;24.60;49.70;;;;;;5005281;28;20444;-86
2022/05/29 02:48:04;;;;;;;1.70;1.47;;;24.60;49.70;;;;;;5005070;28;20173;-86
2022/05/29 02:51:09;;;;;;;1.17;0.87;;;24.60;49.80;;;;;;5005054;28;20411;-86
2022/05/29 02:53:34;;;;;;;1.10;0.87;;;24.60;49.80;;;;;;4965813;29;20469;-86
2022/05/29 02:56:04;;;;;;;1.27;1.00;;;24.60;49.80;;;;;;5009600;28;20426;-86
2022/05/29 02:58:32;;;;;;;1.93;0.90;;;24.60;49.80;;;;;;5021372;28;20177;-86
2022/05/29 03:01:24;;;;;;;1.40;0.97;;;24.60;49.80;;;;;;5004389;28;20894;-86
2022/05/29 03:04:13;;;;;;;1.40;0.87;;;24.60;49.80;;;;;;5019954;28;20415;-85
2022/05/29 03:06:47;;;;;;;1.57;1.00;;;24.60;49.80;;;;;;5026196;28;20403;-86
2022/05/29 03:09:35;;;;;;;1.20;1.00;;;24.60;49.80;;;;;;5024390;28;20418;-85
2022/05/29 03:12:05;;;;;;;0.93;0.83;;;24.60;49.80;;;;;;5024281;28;20462;-86
2022/05/29 03:14:40;;;;;;;1.20;1.00;;;24.60;49.80;;;;;;5024155;28;20490;-86
2022/05/29 03:17:14;;;;;;;1.20;0.80;;;24.60;49.80;;;;;;5025269;28;20417;-86
2022/05/29 03:20:14;;;;;;;1.20;0.70;;;24.60;49.90;;;;;;5024573;28;20415;-86
2022/05/29 03:22:58;;;;;;;1.87;1.03;;;24.60;49.80;;;;;;5025356;28;20878;-86
2022/05/29 03:25:44;;;;;;;1.10;0.90;;;24.60;49.90;;;;;;5023945;28;20396;-86
2022/05/29 03:28:31;;;;;;;1.10;0.90;;;24.50;49.80;;;;;;5024459;28;20449;-86
2022/05/29 03:31:02;;;;;;;1.77;1.00;;;24.60;49.90;;;;;;5024539;28;20411;-86
2022/05/29 03:33:27;;;;;;;1.17;0.93;;;24.60;49.90;;;;;;5024274;28;20443;-86
2022/05/29 03:35:53;;;;;;;1.20;0.90;;;24.60;49.90;;;;;;5023928;28;20403;-86
2022/05/29 03:38:20;;;;;;;1.87;1.10;;;24.60;49.90;;;;;;5025430;28;20583;-85
2022/05/29 03:40:47;;;;;;;1.03;0.90;;;24.60;49.90;;;;;;5025158;28;20176;-85
2022/05/29 03:43:13;;;;;;;1.20;0.80;;;24.60;49.90;;;;;;5057728;28;20423;-86
2022/05/29 03:45:39;;;;;;;1.23;0.93;;;24.60;49.90;;;;;;5026749;28;20431;-85
2022/05/29 03:48:05;;;;;;;1.73;1.17;;;24.60;49.90;;;;;;5028986;28;20421;-86
2022/05/29 03:50:34;;;;;;;1.17;0.87;;;24.60;49.90;;;;;;5060962;28;20510;-86
2022/05/29 03:53:01;;;;;;;1.23;0.87;;;24.60;49.90;;;;;;5029159;28;20462;-85
2022/05/29 03:55:26;;;;;;;1.20;0.80;;;24.60;49.90;;;;;;5028261;28;20422;-85
2022/05/29 03:57:53;;;;;;;1.33;0.93;;;24.60;49.90;;;;;;5028763;28;20407;-85
2022/05/29 04:00:21;;;;;;;1.00;0.83;;;24.60;49.80;;;;;;5027836;28;20240;-86
2022/05/29 04:02:47;;;;;;;1.90;1.00;;;24.60;49.80;;;;;;5028712;28;20410;-85
2022/05/29 04:05:20;;;;;;;1.10;0.90;;;24.60;49.80;;;;;;5027415;28;20418;-86
2022/05/29 04:13:17;;;;;;;1.37;1.13;;;24.60;49.80;;;;;;5028522;28;20443;-85
2022/05/29 04:15:45;;;;;;;1.00;0.90;;;24.60;49.90;;;;;;5060065;28;20411;-85
2022/05/29 04:18:16;;;;;;;1.10;0.80;;;24.60;49.90;;;;;;5027731;28;20929;-85
2022/05/29 04:20:42;;;;;;;1.20;0.80;;;24.60;49.90;;;;;;5027063;28;20442;-86
2022/05/29 04:23:08;;;;;;;0.97;0.77;;;24.60;49.90;;;;;;5026977;28;20434;-85
2022/05/29 04:25:34;;;;;;;1.43;0.87;;;24.60;49.90;;;;;;5028462;28;20411;-85
2022/05/29 04:28:01;;;;;;;1.10;0.80;;;24.60;49.90;;;;;;5028544;28;20196;-85
2022/05/29 04:30:27;;;;;;;1.10;0.90;;;24.60;49.90;;;;;;5027694;28;20172;-85
2022/05/29 04:32:59;;;;;;;1.20;0.90;;;24.60;49.90;;;;;;5027349;28;20459;-85
2022/05/29 04:35:25;;;;;;;1.10;0.90;;;24.60;49.90;;;;;;5029677;28;20392;-86
2022/05/29 04:37:51;;;;;;;1.20;0.90;;;24.70;49.90;;;;;;5030534;28;20410;-85
2022/05/29 04:40:17;;;;;;;1.00;0.77;;;24.70;49.90;;;;;;5060891;28;20418;-85
2022/05/29 04:42:43;;;;;;;1.17;0.83;;;24.70;50.00;;;;;;5045134;28;20930;-85
2022/05/29 04:45:09;;;;;;;1.40;0.87;;;24.70;49.90;;;;;;5063085;28;20420;-85
2022/05/29 04:47:35;;;;;;;1.40;0.90;;;24.70;49.90;;;;;;5026773;28;20184;-85
2022/05/29 04:50:01;;;;;;;1.30;0.90;;;24.70;49.90;;;;;;5029350;28;20430;-86
2022/05/29 04:52:29;;;;;;;1.57;1.00;;;24.70;49.90;;;;;;5028891;28;20192;-85
2022/05/29 04:54:54;;;;;;;1.50;0.90;;;24.70;50.00;;;;;;5027371;28;20218;-85
2022/05/29 04:57:20;;;;;;;1.07;0.80;;;24.70;49.90;;;;;;5027931;28;20423;-85
2022/05/29 04:59:46;;;;;;;0.90;0.70;;;24.70;49.90;;;;;;5027481;28;20721;-85
2022/05/29 05:02:12;;;;;;;1.23;0.87;;;24.70;49.90;;;;;;5026719;28;20252;-85
2022/05/29 05:04:38;;;;;;;1.00;0.90;;;24.80;50.00;;;;;;5026806;28;20419;-85
2022/05/29 05:07:04;;;;;;;1.20;0.90;;;24.80;49.90;;;;;;5026745;28;20180;-85
2022/05/29 05:09:32;;;;;;;1.33;0.87;;;24.80;49.90;;;;;;5026632;28;20184;-85
2022/05/29 05:11:58;;;;;;;0.90;0.70;;;24.80;50.00;;;;;;5042854;28;20605;-86
2022/05/29 05:14:25;;;;;;;1.20;0.80;;;24.80;50.00;;;;;;5042520;28;20459;-86
2022/05/29 05:16:53;;;;;;;1.10;0.70;;;24.80;50.00;;;;;;5027420;28;20168;-86
2022/05/29 05:19:19;;;;;;;1.50;1.07;;;24.80;50.00;;;;;;5025414;28;20408;-86
2022/05/29 05:21:45;;;;;;;0.93;0.73;;;24.80;50.00;;;;;;5027395;28;20427;-85
2022/05/29 05:27:34;;;;;;;1.13;0.90;;;24.90;50.10;;;;;;5027507;28;20179;-86
2022/05/29 05:33:22;;;;;;;1.20;0.83;;;24.90;50.10;;;;;;5027756;28;20849;-85
2022/05/29 05:39:10;;;;;;;1.00;0.80;;;24.90;50.00;;;;;;5027607;28;20210;-85
2022/05/29 05:41:35;;;;;;;1.43;0.90;;;24.80;50.00;;;;;;5026046;28;20427;-86
2022/05/29 05:44:05;;;;;;;1.10;0.80;;;24.80;49.90;;;;;;5026022;28;20187;-86
2022/05/29 05:46:32;;;;;;;1.10;0.80;;;24.90;50.00;;;;;;5026279;28;20204;-86
2022/05/29 05:48:57;;;;;;;1.10;0.80;;;24.90;50.00;;;;;;5026848;28;20494;-86
2022/05/29 05:51:23;;;;;;;0.93;0.70;;;24.90;50.00;;;;;;5025230;28;20432;-85
2022/05/29 05:53:49;;;;;;;1.13;0.90;;;24.90;50.00;;;;;;5027528;28;20203;-85
2022/05/29 06:02:59;;;;;;;1.00;0.70;;;24.90;50.00;;;;;;5025043;28;20422;-86
2022/05/29 06:05:26;;;;;;;1.33;0.87;;;24.90;50.00;;;;;;5024165;28;20419;-87
2022/05/29 06:07:52;;;;;;;1.10;0.80;;;24.90;50.10;;;;;;5042698;28;20248;-86
2022/05/29 06:10:18;;;;;;;1.20;1.00;;;24.90;50.10;;;;;;5023761;28;20794;-86
2022/05/29 06:12:44;;;;;;;2.33;0.83;;;24.90;50.10;;;;;;5041968;28;20177;-86
2022/05/29 06:15:10;;;;;;;1.93;0.90;;;24.90;50.10;;;;;;5024136;28;20420;-86
2022/05/29 06:17:36;;;;;;;1.37;1.00;;;24.90;50.10;;;;;;5021072;28;20178;-86
2022/05/29 06:20:03;;;;;;;1.40;0.90;;;24.90;50.10;;;;;;5021118;28;20415;-85
2022/05/29 06:22:29;;;;;;;1.27;0.90;;;24.90;50.10;;;;;;5025003;28;20203;-86
2022/05/29 06:24:55;;;;;;;1.10;0.90;;;24.90;50.10;;;;;;5026330;28;20407;-86
2022/05/29 06:27:20;;;;;;;1.77;0.90;;;24.90;50.10;;;;;;5025509;28;20443;-86
2022/05/29 06:29:46;;;;;;;1.30;1.13;;;24.90;50.10;;;;;;5025207;28;20188;-87
2022/05/29 06:32:15;;;;;;;2.27;1.30;;;24.90;50.10;;;;;;5025510;28;20184;-86
2022/05/29 06:34:40;;;;;;;1.10;0.97;;;24.90;50.10;;;;;;5026314;28;20203;-86
2022/05/29 06:37:07;;;;;;;1.37;1.00;;;24.90;50.00;;;;;;5025318;28;20427;-86
2022/05/29 06:39:37;;;;;;;1.40;1.23;;;24.90;50.00;;;;;;5058371;28;20188;-86
2022/05/29 06:42:04;;;;;;;1.20;0.90;;;24.90;50.00;;;;;;5025246;28;20431;-85
2022/05/29 06:44:30;;;;;;;2.00;1.33;;;24.90;50.00;;;;;;5025427;28;20431;-85
2022/05/29 06:46:56;;;;;;;2.30;1.17;;;24.90;50.00;;;;;;5027904;28;20608;-86
2022/05/29 06:49:22;;;;;;;1.77;1.30;;;24.90;50.00;;;;;;5030666;28;20188;-85
2022/05/29 06:51:47;;;;;;;1.37;1.00;;;25.00;50.10;;;;;;5024466;28;20199;-85
2022/05/29 06:54:16;;;;;;;6.00;1.77;;;25.00;50.10;;;;;;5025900;28;20203;-85
2022/05/29 06:56:42;;;;;;;1.70;0.83;;;25.00;50.10;;;;;;5035583;28;20231;-85
2022/05/29 07:08:37;;;;;;;1.70;1.33;;;24.90;50.10;;;;;;5025609;28;20414;-85
2022/05/29 07:11:09;;;;;;;3.40;1.10;;;24.90;50.10;;;;;;5026295;28;20423;-86
2022/05/29 07:13:35;;;;;;;1.43;1.07;;;24.90;50.20;;;;;;5024479;28;20215;-86
2022/05/29 07:16:01;;;;;;;2.90;1.00;;;24.90;50.20;;;;;;5024100;28;21627;-86
2022/05/29 07:18:29;;;;;;;4.57;1.13;;;24.90;50.20;;;;;;5027323;28;20423;-86
2022/05/29 07:21:00;;;;;;;3.33;1.60;;;24.90;50.20;;;;;;5028203;28;20191;-86
2022/05/29 07:23:26;;;;;;;1.30;1.00;;;24.90;50.20;;;;;;5029123;28;20434;-86
2022/05/29 07:25:51;;;;;;;2.40;1.07;;;25.00;50.30;;;;;;5028818;28;20435;-85
2022/05/29 07:28:17;;;;;;;2.43;1.23;;;24.90;50.20;;;;;;5044932;28;20992;-86
2022/05/29 07:33:53;;;;;;;1.97;1.17;;;25.00;50.30;;;;;;5028650;28;20208;-85
2022/05/29 07:36:21;;;;;;;1.67;1.00;;;25.00;50.30;;;;;;5030265;28;20482;-85
2022/05/29 07:38:47;;;;;;;1.77;0.90;;;25.00;50.30;;;;;;5030113;28;20191;-85
2022/05/29 07:44:00;;;;;;;2.00;0.90;;;25.00;50.20;;;;;;5008941;28;20579;-86
2022/05/29 07:46:25;;;;;;;1.87;1.20;;;24.90;50.10;;;;;;5024576;28;20434;-86
2022/05/29 07:48:51;;;;;;;1.73;1.00;;;25.00;50.10;;;;;;5029286;28;20430;-86
2022/05/29 07:51:17;;;;;;;2.43;1.30;;;25.00;50.10;;;;;;5028478;28;20436;-87
2022/05/29 07:53:44;;;;;;;6.13;1.30;;;25.00;50.00;;;;;;5023725;28;20991;-87
2022/05/29 07:56:10;;;;;;;1.87;1.23;;;25.00;50.00;;;;;;5027340;28;20180;-87
2022/05/29 07:58:42;;;;;;;1.40;1.10;;;25.00;50.00;;;;;;5028524;28;20407;-87
2022/05/29 08:01:07;;;;;;;3.47;1.20;;;25.00;49.90;;;;;;5027791;28;20418;-86
2022/05/29 08:03:33;;;;;;;4.67;1.50;;;24.90;49.80;;;;;;5027439;28;20419;-86
2022/05/29 08:06:00;;;;;;;1.73;1.53;;;24.90;49.80;;;;;;5026611;28;20234;-86
2022/05/29 08:08:26;;;;;;;2.03;1.00;;;24.90;49.80;;;;;;5028642;28;20407;-86
2022/05/29 08:10:52;;;;;;;1.10;1.00;;;24.90;49.80;;;;;;5019927;28;20937;-85
2022/05/29 08:13:18;;;;;;;1.70;1.00;;;24.90;49.80;;;;;;5027604;28;20458;-86
2022/05/29 08:19:07;;;;;;;1.20;0.90;;;24.90;50.00;;;;;;5027721;28;20183;-86
2022/05/29 08:21:33;;;;;;;1.57;1.00;;;24.90;50.10;;;;;;5028834;28;20449;-87
2022/05/29 08:32:15;;;;;;;1.90;1.10;;;24.90;50.10;;;;;;5022832;28;20446;-86
2022/05/29 08:34:42;;;;;;;1.27;1.10;;;24.90;50.20;;;;;;5007292;28;20463;-86
2022/05/29 08:37:08;;;;;;;2.13;1.17;;;24.90;50.20;;;;;;5008721;28;20476;-86
2022/05/29 08:39:35;;;;;;;1.83;1.27;;;24.90;50.20;;;;;;5008673;28;20436;-85
2022/05/29 08:42:02;;;;;;;2.70;1.23;;;24.90;50.10;;;;;;5007219;28;20427;-85
2022/05/29 08:44:48;;;;;;;1.43;1.20;;;24.90;50.10;;;;;;5023958;28;20417;-85
2022/05/29 08:47:25;;;;;;;1.70;1.13;;;25.00;50.20;;;;;;5007513;28;20432;-85
2022/05/29 08:49:51;;;;;;;3.77;1.17;;;24.90;50.10;;;;;;5008200;28;20392;-86
2022/05/29 08:52:41;;;;;;;1.30;1.00;;;24.90;50.10;;;;;;5006934;28;20442;-85
2022/05/29 08:55:34;;;;;;;1.60;1.13;;;25.00;50.10;;;;;;5008446;28;20609;-86
2022/05/29 08:58:17;;;;;;;2.60;1.23;;;25.00;50.10;;;;;;5010979;28;20415;-85
2022/05/29 09:01:21;;;;;;;2.13;1.10;;;25.00;50.10;;;;;;5006807;28;20483;-87
2022/05/29 09:03:53;;;;;;;1.77;1.30;;;24.90;50.10;;;;;;5023125;28;20743;-87
2022/05/29 09:06:41;;;;;;;1.20;0.90;;;24.90;50.10;;;;;;5023903;28;20404;-87
2022/05/29 09:10:18;;;;;;;2.70;1.23;;;24.90;50.10;;;;;;5007926;28;20409;-88
2022/05/29 09:12:54;;;;;;;1.93;1.27;;;24.90;50.10;;;;;;5019225;28;20914;-86
2022/05/29 09:15:36;;;;;;;1.47;1.10;;;24.90;50.10;;;;;;5005862;28;20416;-87
2022/05/29 09:18:30;;;;;;;2.33;1.10;;;24.90;50.10;;;;;;5023391;28;20408;-86
2022/05/29 09:21:05;;;;;;;2.60;1.47;;;24.90;50.10;;;;;;5023216;28;20431;-91
2022/05/29 09:23:40;;;;;;;1.70;1.00;;;24.90;50.10;;;;;;5024217;28;20415;-88
2022/05/29 09:26:10;;;;;;;1.40;1.10;;;24.90;50.10;;;;;;5026336;28;20471;-87
2022/05/29 09:28:41;;;;;;;3.60;1.23;;;24.90;50.10;;;;;;5024504;28;20909;-87
2022/05/29 09:31:20;;;;;;;1.37;1.00;;;24.90;50.10;;;;;;5025222;28;20422;-88
2022/05/29 09:33:47;;;;;;;1.90;1.33;;;24.90;50.10;;;;;;5025599;28;20464;-88
2022/05/29 09:36:51;;;;;;;1.80;1.27;;;24.90;50.10;;;;;;5024101;28;20415;-88
2022/05/29 09:39:17;;;;;;;3.17;1.20;;;24.90;50.10;;;;;;5041265;28;20416;-87
2022/05/29 09:41:50;;;;;;;1.87;1.47;;;24.90;50.10;;;;;;5026187;28;20458;-88
2022/05/29 09:44:23;;;;;;;2.80;1.60;;;24.90;50.10;;;;;;5025405;28;20172;-87
2022/05/29 09:46:53;;;;;;;1.80;1.23;;;24.90;50.10;;;;;;5026063;28;20408;-89
2022/05/29 09:50:01;;;;;;;2.00;1.00;;;24.90;50.10;;;;;;5026689;28;20418;-88
2022/05/29 09:53:08;;;;;;;3.93;1.33;;;24.90;50.00;;;;;;5040803;28;20415;-90
2022/05/29 09:55:36;;;;;;;1.97;1.00;;;24.90;50.00;;;;;;5026575;28;20423;-88
2022/05/29 09:58:06;;;;;;;3.67;1.30;;;24.90;49.90;;;;;;5026566;28;20406;-88
2022/05/29 10:01:04;;;;;;;3.13;1.37;;;24.90;49.70;;;;;;5024839;28;20753;-88
2022/05/29 10:03:33;;;;;;;1.30;0.97;;;24.90;49.60;;;;;;5017687;28;20462;-88
2022/05/29 10:06:25;;;;;;;2.47;1.20;;;24.90;49.50;;;;;;5024680;28;20408;-87
2022/05/29 10:09:19;;;;;;;3.33;1.20;;;24.90;49.40;;;;;;5026586;28;20716;-88
2022/05/29 10:11:50;;;;;;;5.93;1.50;;;24.90;49.30;;;;;;5004781;28;20435;-87
2022/05/29 10:14:33;;;;;;;;;;;;;;;;;;;;;
2022/05/29 10:17:01;;;;;;;2.70;1.47;;;24.80;49.20;;;;;;5026820;28;20811;-88
2022/05/29 10:19:37;;;;;;;22.23;3.20;;;24.90;49.10;;;;;;5027148;28;20443;-86
2022/05/29 10:22:32;;;;;;;;;;;;;;;;;;;;;
2022/05/29 10:25:11;;;;;;;3.73;1.80;;;24.90;49.30;;;;;;5026372;28;20453;-87
2022/05/29 10:27:39;;;;;;;6.80;1.60;;;24.90;49.40;;;;;;5031376;28;20396;-89
2022/05/29 10:30:26;;;;;;;7.93;1.80;;;24.90;49.40;;;;;;5030200;28;20414;-88
2022/05/29 10:33:01;;;;;;;15.07;4.97;;;24.90;49.30;;;;;;5059435;28;20460;-86
2022/05/29 10:35:30;;;;;;;24.23;12.07;;;24.90;49.40;;;;;;5058360;28;20410;-88
2022/05/29 10:38:22;;;;;;;22.67;12.83;;;24.90;49.40;;;;;;5025440;28;20769;-90
2022/05/29 10:40:54;;;;;;;8.27;4.97;;;25.00;49.50;;;;;;5024380;28;20492;-84
2022/05/29 10:43:52;;;;;;;6.60;3.97;;;25.00;49.40;;;;;;5059379;28;20403;-86
2022/05/29 10:46:41;;;;;;;7.10;3.23;;;25.00;49.40;;;;;;5027747;28;20399;-88
2022/05/29 10:49:29;;;;;;;4.57;3.10;;;25.00;49.30;;;;;;5019581;28;20765;-86
2022/05/29 10:52:05;;;;;;;12.97;3.20;;;25.00;49.40;;;;;;5041896;28;20411;-87
2022/05/29 10:55:10;;;;;;;4.90;2.17;;;25.00;49.40;;;;;;5027387;28;20450;-87
2022/05/29 10:57:42;;;;;;;7.13;2.27;;;25.00;49.40;;;;;;5045465;28;20411;-85
2022/05/29 11:00:40;;;;;;;3.97;1.60;;;24.90;48.70;;;;;;5030100;28;20486;-86
2022/05/29 11:03:31;;;;;;;2.43;1.77;;;25.00;48.40;;;;;;4969675;29;20820;-86
2022/05/29 11:06:18;;;;;;;4.27;2.07;;;24.90;48.50;;;;;;4953644;29;20461;-86
2022/05/29 11:09:07;;;;;;;7.80;2.17;;;24.90;48.70;;;;;;4954367;29;20915;-88
2022/05/29 11:11:49;;;;;;;4.73;2.30;;;24.90;48.30;;;;;;4969922;29;20426;-87
2022/05/29 11:14:48;;;;;;;2.93;2.00;;;24.90;48.20;;;;;;4953671;29;20469;-88
2022/05/29 11:17:39;;;;;;;3.67;1.30;;;24.90;48.30;;;;;;4895711;29;20437;-87
2022/05/29 11:20:38;;;;;;;2.97;1.77;;;24.90;48.20;;;;;;4896313;29;20452;-87
2022/05/29 11:23:17;;;;;;;2.80;1.90;;;24.80;47.90;;;;;;4896628;29;20481;-88
2022/05/29 11:25:59;;;;;;;3.57;2.17;;;24.90;48.10;;;;;;4894946;29;21007;-88
2022/05/29 11:28:50;;;;;;;2.57;1.80;;;24.80;48.20;;;;;;4894817;29;20506;-87
2022/05/29 11:31:55;;;;;;;4.60;1.90;;;24.80;48.30;;;;;;4894265;29;20489;-88
2022/05/29 11:34:47;;;;;;;2.40;1.60;;;24.80;48.30;;;;;;4896220;29;20477;-87
2022/05/29 11:37:23;;;;;;;5.87;1.70;;;24.80;48.50;;;;;;4889552;29;20440;-88
2022/05/29 11:40:20;;;;;;;4.00;1.87;;;24.80;48.60;;;;;;4934963;29;20429;-86
2022/05/29 11:42:46;;;;;;;2.00;1.40;;;24.80;48.60;;;;;;4969336;28;20425;-86
2022/05/29 11:45:18;;;;;;;6.37;2.17;;;24.80;48.60;;;;;;4961579;28;20431;-86
2022/05/29 11:51:21;;;;;;;2.13;1.60;;;24.80;48.60;;;;;;4944849;29;20406;-86
2022/05/29 11:54:10;;;;;;;2.30;1.43;;;24.80;48.60;;;;;;4958672;28;20543;-86
2022/05/29 11:57:09;;;;;;;2.30;1.60;;;24.80;48.60;;;;;;5025361;28;20463;-87
2022/05/29 11:59:55;;;;;;;3.10;1.40;;;24.80;48.70;;;;;;5011527;28;20455;-86
2022/05/29 12:02:31;;;;;;;2.60;1.40;;;24.80;48.80;;;;;;5029493;28;20448;-85
2022/05/29 12:05:32;;;;;;;2.90;1.67;;;24.80;48.80;;;;;;5067131;28;20440;-86
2022/05/29 12:08:40;;;;;;;2.17;1.70;;;24.80;48.40;;;;;;5059493;28;20456;-86
2022/05/29 12:11:18;;;;;;;4.27;1.57;;;24.80;48.40;;;;;;4987868;28;20435;-86
2022/05/29 12:14:02;;;;;;;2.40;1.37;;;24.80;48.30;;;;;;5032471;28;20450;-85
2022/05/29 12:16:30;;;;;;;1.60;1.10;;;24.80;48.30;;;;;;5049506;28;20414;-85
2022/05/29 12:18:59;;;;;;;2.53;1.30;;;24.80;48.20;;;;;;5032460;28;20438;-84
2022/05/29 12:21:40;;;;;;;4.10;1.63;;;24.80;48.30;;;;;;5025028;28;20443;-84
2022/05/29 12:24:10;;;;;;;3.40;1.10;;;24.80;48.40;;;;;;5028763;28;21008;-85
2022/05/29 12:26:50;;;;;;;1.77;1.13;;;24.80;48.40;;;;;;5031243;28;20427;-84
2022/05/29 12:29:25;;;;;;;3.30;1.43;;;24.80;48.40;;;;;;5013624;28;20526;-85
2022/05/29 12:32:02;;;;;;;1.97;1.60;;;24.80;48.40;;;;;;5029394;28;20490;-84
2022/05/29 12:34:47;;;;;;;1.67;1.23;;;24.80;48.40;;;;;;5030656;28;20463;-84
2022/05/29 12:37:25;;;;;;;3.33;1.30;;;24.80;48.40;;;;;;5047685;28;20406;-85
2022/05/29 12:44:17;;;;;;;2.03;1.23;;;24.80;48.30;;;;;;4969836;29;20472;-85
2022/05/29 12:47:04;;;;;;;2.20;1.60;;;24.70;48.30;;;;;;4930771;29;20416;-85
2022/05/29 12:49:50;;;;;;;1.50;1.17;;;24.70;48.50;;;;;;4931098;29;20434;-84
2022/05/29 12:52:23;;;;;;;3.77;1.30;;;24.80;48.60;;;;;;4930585;29;20443;-85
2022/05/29 12:55:13;;;;;;;2.20;1.40;;;24.70;48.60;;;;;;4914763;29;21005;-86
2022/05/29 12:58:11;;;;;;;3.23;1.60;;;24.70;48.60;;;;;;4929816;29;20420;-85
2022/05/29 13:01:03;;;;;;;2.37;1.50;;;24.80;48.60;;;;;;4914847;29;20836;-86
2022/05/29 13:03:35;;;;;;;3.23;1.53;;;24.80;48.60;;;;;;4927423;29;20423;-85
2022/05/29 13:06:22;;;;;;;3.80;1.83;;;24.80;48.70;;;;;;4913560;29;20519;-86
2022/05/29 13:09:15;;;;;;;3.53;1.50;;;24.80;48.60;;;;;;4930733;29;20412;-85
2022/05/29 13:11:50;;;;;;;1.40;1.10;;;24.80;48.60;;;;;;4914100;29;20451;-85
2022/05/29 13:14:19;;;;;;;3.77;1.50;;;24.80;48.60;;;;;;4914915;29;20503;-86
2022/05/29 13:16:45;;;;;;;2.00;1.30;;;24.80;48.60;;;;;;4913549;29;20438;-85
2022/05/29 13:19:15;;;;;;;1.37;1.10;;;24.80;48.60;;;;;;4976960;28;20424;-85
2022/05/29 13:22:13;;;;;;;2.23;1.47;;;24.80;48.60;;;;;;4972303;28;20456;-86
2022/05/29 13:24:44;;;;;;;4.60;3.50;;;24.80;48.60;;;;;;4986498;28;20432;-85
2022/05/29 13:27:09;;;;;;;1.77;1.30;;;24.80;48.50;;;;;;5029759;28;20478;-86
2022/05/29 13:29:39;;;;;;;1.90;1.07;;;24.80;48.50;;;;;;5045423;28;20419;-85
2022/05/29 13:32:13;;;;;;;2.80;1.30;;;24.80;48.50;;;;;;5029441;28;20172;-85
2022/05/29 13:34:47;;;;;;;1.77;1.13;;;24.80;48.50;;;;;;5045369;28;20474;-85
2022/05/29 13:37:31;;;;;;;2.33;1.23;;;24.80;48.50;;;;;;5042322;28;20432;-85
2022/05/29 13:40:29;;;;;;;2.27;1.93;;;24.80;48.50;;;;;;5015865;28;20436;-85
2022/05/29 13:43:15;;;;;;;1.97;1.30;;;24.80;48.50;;;;;;5061072;28;20483;-85
2022/05/29 13:45:44;;;;;;;2.03;1.30;;;24.80;48.50;;;;;;5028220;28;20407;-85
2022/05/29 13:48:30;;;;;;;1.60;1.20;;;24.80;48.50;;;;;;5044225;28;20415;-85
2022/05/29 13:51:11;;;;;;;2.27;1.17;;;24.80;48.60;;;;;;5025035;28;20435;-85
2022/05/29 13:53:50;;;;;;;1.80;1.20;;;24.70;48.50;;;;;;5024289;28;20451;-85
2022/05/29 13:56:18;;;;;;;1.60;1.03;;;24.80;48.60;;;;;;5043161;28;20446;-85
2022/05/29 14:04:54;;;;;;;2.60;1.70;;;24.70;48.70;;;;;;5008655;28;20411;-85
2022/05/29 14:07:25;;;;;;;2.43;1.30;;;24.70;48.60;;;;;;5007910;28;20408;-85
2022/05/29 14:10:19;;;;;;;2.63;1.33;;;24.70;48.70;;;;;;5009588;28;20415;-84
2022/05/29 14:12:50;;;;;;;1.80;1.10;;;24.70;48.70;;;;;;5023799;28;20412;-85
2022/05/29 14:15:39;;;;;;;2.53;1.20;;;24.70;48.70;;;;;;5007303;28;20558;-85
2022/05/29 14:18:12;;;;;;;2.00;1.30;;;24.70;48.70;;;;;;5008100;28;20493;-85
2022/05/29 14:20:59;;;;;;;2.83;1.50;;;24.70;48.70;;;;;;5020808;28;20451;-85
2022/05/29 14:23:49;;;;;;;1.27;1.00;;;24.80;48.80;;;;;;5008112;28;20402;-85
2022/05/29 14:26:49;;;;;;;1.10;0.90;;;24.70;48.70;;;;;;5023787;28;20404;-85
2022/05/29 14:29:36;;;;;;;2.20;1.17;;;24.80;48.80;;;;;;5027187;28;20434;-85
2022/05/29 14:32:27;;;;;;;2.80;1.30;;;24.70;48.70;;;;;;5027648;28;20395;-85
2022/05/29 14:35:05;;;;;;;2.97;1.20;;;24.70;48.70;;;;;;5026290;28;20949;-85
2022/05/29 14:37:46;;;;;;;1.73;1.10;;;24.70;48.70;;;;;;5027963;28;20392;-85